createdAt,value
2024-03-03T00:00:43.304Z,67.24
2024-03-03T00:03:11.025Z,67.30
2024-03-03T00:05:38.480Z,67.27
2024-03-03T00:08:06.012Z,66.86
2024-03-03T00:10:33.663Z,67.57
2024-03-03T00:13:01.181Z,66.97
2024-03-03T00:15:28.697Z,66.67
2024-03-03T00:17:56.485Z,66.63
2024-03-03T00:20:23.913Z,65.99
2024-03-03T00:22:51.356Z,66.01
2024-03-03T00:25:19.168Z,66.54
2024-03-03T00:27:46.623Z,66.63
2024-03-03T00:30:14.160Z,66.21
2024-03-03T00:32:44.573Z,66.27
2024-03-03T00:35:13.234Z,65.25
2024-03-03T00:37:40.688Z,66.53
2024-03-03T00:40:09.032Z,66.87
2024-03-03T00:42:36.541Z,66.40
2024-03-03T00:45:04.326Z,66.69
2024-03-03T00:47:32.028Z,66.53
2024-03-03T00:49:59.418Z,66.85
2024-03-03T00:52:26.816Z,67.10
2024-03-03T00:54:54.534Z,66.83
2024-03-03T00:57:21.991Z,67.26
2024-03-03T00:59:49.585Z,66.74
2024-03-03T01:02:17.359Z,66.62
2024-03-03T01:04:44.805Z,66.28
2024-03-03T01:07:12.257Z,66.19
2024-03-03T01:09:40.122Z,65.94
2024-03-03T01:12:07.604Z,66.83
2024-03-03T01:14:35.074Z,66.91
2024-03-03T01:17:02.816Z,66.86
2024-03-03T01:19:31.099Z,66.67
2024-03-03T01:21:58.621Z,66.76
2024-03-03T01:24:26.360Z,67.28
2024-03-03T01:26:53.871Z,67.05
2024-03-03T01:29:21.307Z,66.94
2024-03-03T01:31:49.396Z,66.63
2024-03-03T01:34:16.920Z,66.78
2024-03-03T01:36:44.327Z,67.34
2024-03-03T01:39:12.045Z,66.84
2024-03-03T01:41:45.414Z,66.24
2024-03-03T01:44:13.177Z,66.59
2024-03-03T01:46:40.659Z,65.55
2024-03-03T01:49:08.436Z,65.72
2024-03-03T01:51:36.183Z,65.47
2024-03-03T01:54:03.707Z,66.07
2024-03-03T01:56:31.175Z,66.61
2024-03-03T01:58:59.432Z,65.83
2024-03-03T02:01:26.989Z,66.41
2024-03-03T02:03:55.779Z,66.00
2024-03-03T02:06:23.797Z,65.90
2024-03-03T02:08:51.283Z,66.35
2024-03-03T02:11:19.106Z,66.73
2024-03-03T02:13:46.572Z,66.05
2024-03-03T02:16:14.276Z,67.02
2024-03-03T02:18:42.062Z,65.80
2024-03-03T02:21:09.596Z,66.01
2024-03-03T02:23:36.961Z,65.45
2024-03-03T02:26:04.768Z,67.44
2024-03-03T02:28:32.471Z,66.55
2024-03-03T02:30:59.967Z,65.49
2024-03-03T02:33:27.673Z,65.39
2024-03-03T02:35:55.560Z,66.41
2024-03-03T02:38:23.075Z,66.45
2024-03-03T02:40:51.096Z,66.41
2024-03-03T02:43:18.626Z,67.28
2024-03-03T02:45:46.109Z,66.74
2024-03-03T02:48:13.843Z,68.33
2024-03-03T02:50:41.282Z,66.56
2024-03-03T02:53:08.750Z,66.12
2024-03-03T02:55:36.480Z,65.96
2024-03-03T02:58:04.613Z,65.90
2024-03-03T03:00:33.502Z,64.95
2024-03-03T03:03:01.236Z,65.27
2024-03-03T03:05:28.683Z,64.05
2024-03-03T03:07:56.192Z,65.58
2024-03-03T03:10:24.212Z,65.50
2024-03-03T03:12:51.697Z,64.36
2024-03-03T03:15:19.150Z,65.22
2024-03-03T03:17:47.295Z,66.21
2024-03-03T03:20:15.063Z,65.86
2024-03-03T03:22:43.108Z,65.53
2024-03-03T03:25:11.268Z,65.31
2024-03-03T03:27:38.741Z,65.68
2024-03-03T03:30:08.159Z,65.70
2024-03-03T03:32:35.917Z,67.09
2024-03-03T03:35:04.880Z,66.68
2024-03-03T03:37:32.415Z,66.81
2024-03-03T03:40:00.217Z,68.62
2024-03-03T03:42:27.651Z,67.57
2024-03-03T03:44:55.054Z,67.05
2024-03-03T03:47:22.684Z,67.13
2024-03-03T03:49:50.137Z,66.12
2024-03-03T03:52:17.644Z,66.04
2024-03-03T03:54:45.499Z,65.03
2024-03-03T03:57:13.247Z,65.89
2024-03-03T03:59:41.348Z,65.00
2024-03-03T04:02:08.982Z,65.18
2024-03-03T04:04:36.674Z,64.93
2024-03-03T04:07:05.857Z,65.69
2024-03-03T04:09:33.481Z,68.61
2024-03-03T04:12:01.150Z,67.53
2024-03-03T04:14:28.567Z,67.79
2024-03-03T04:16:55.987Z,66.02
2024-03-03T04:19:23.746Z,66.16
2024-03-03T04:21:51.208Z,65.88
2024-03-03T04:24:19.037Z,65.64
2024-03-03T04:26:46.684Z,65.10
2024-03-03T04:29:15.509Z,65.82
2024-03-03T04:31:44.258Z,65.02
2024-03-03T04:34:12.235Z,64.48
2024-03-03T04:36:44.565Z,66.21
2024-03-03T04:39:12.983Z,64.63
2024-03-03T04:41:40.440Z,66.25
2024-03-03T04:44:07.887Z,66.91
2024-03-03T04:46:35.742Z,65.71
2024-03-03T04:49:03.287Z,65.41
2024-03-03T04:51:30.752Z,65.77
2024-03-03T04:53:58.393Z,65.96
2024-03-03T04:56:28.933Z,65.04
2024-03-03T04:58:56.839Z,64.45
2024-03-03T05:01:24.685Z,65.51
2024-03-03T05:03:52.432Z,65.06
2024-03-03T05:06:19.830Z,64.95
2024-03-03T05:08:47.709Z,65.09
2024-03-03T05:11:15.662Z,66.23
2024-03-03T05:13:43.202Z,67.87
2024-03-03T05:16:10.911Z,67.92
2024-03-03T05:18:38.488Z,67.83
2024-03-03T05:21:05.883Z,67.82
2024-03-03T05:23:33.510Z,66.43
2024-03-03T05:26:00.927Z,67.75
2024-03-03T05:28:28.406Z,67.69
2024-03-03T05:30:57.201Z,68.92
2024-03-03T05:33:24.929Z,68.99
2024-03-03T05:35:52.365Z,67.18
2024-03-03T05:38:20.053Z,66.24
2024-03-03T05:40:47.641Z,70.52
2024-03-03T05:43:15.108Z,67.55
2024-03-03T05:45:42.856Z,66.51
2024-03-03T05:48:10.384Z,66.53
2024-03-03T05:50:37.811Z,67.54
2024-03-03T05:53:05.551Z,67.29
2024-03-03T05:55:33.025Z,66.72
2024-03-03T05:58:00.533Z,68.75
2024-03-03T06:00:29.246Z,68.19
2024-03-03T06:02:57.114Z,67.43
2024-03-03T06:05:24.847Z,67.00
2024-03-03T06:07:52.312Z,66.17
2024-03-03T06:10:20.168Z,67.75
2024-03-03T06:12:47.668Z,69.03
2024-03-03T06:15:15.156Z,67.84
2024-03-03T06:17:42.969Z,68.68
2024-03-03T06:20:11.529Z,67.59
2024-03-03T06:22:39.026Z,66.98
2024-03-03T06:25:07.529Z,67.67
2024-03-03T06:27:35.260Z,66.92
2024-03-03T06:30:04.801Z,66.89
2024-03-03T06:32:33.194Z,65.88
2024-03-03T06:35:00.752Z,64.62
2024-03-03T06:37:28.127Z,65.10
2024-03-03T06:39:55.997Z,65.54
2024-03-03T06:42:23.455Z,65.08
2024-03-03T06:44:50.979Z,64.01
2024-03-03T06:47:18.694Z,64.83
2024-03-03T06:49:46.184Z,64.62
2024-03-03T06:52:13.669Z,64.80
2024-03-03T06:54:41.373Z,63.80
2024-03-03T06:57:08.853Z,63.35
2024-03-03T06:59:36.296Z,63.34
2024-03-03T07:02:05.445Z,63.44
2024-03-03T07:04:33.011Z,63.23
2024-03-03T07:07:00.455Z,64.09
2024-03-03T07:09:28.124Z,64.37
2024-03-03T07:11:56.218Z,63.67
2024-03-03T07:14:24.587Z,62.89
2024-03-03T07:16:52.543Z,62.54
2024-03-03T07:19:20.113Z,62.71
2024-03-03T07:21:47.610Z,62.92
2024-03-03T07:24:15.307Z,61.81
2024-03-03T07:26:42.889Z,62.93
2024-03-03T07:29:10.714Z,64.74
2024-03-03T07:31:38.483Z,64.02
2024-03-03T07:34:05.947Z,62.46
2024-03-03T07:36:33.384Z,61.63
2024-03-03T07:39:01.602Z,62.72
2024-03-03T07:41:29.501Z,65.42
2024-03-03T07:43:56.872Z,64.05
2024-03-03T07:46:24.585Z,64.48
2024-03-03T07:48:53.336Z,62.73
2024-03-03T07:51:23.092Z,62.11
2024-03-03T07:53:50.891Z,64.31
2024-03-03T07:56:18.282Z,63.44
2024-03-03T07:58:45.662Z,61.11
2024-03-03T08:01:13.889Z,62.49
2024-03-03T08:03:41.675Z,61.56
2024-03-03T08:06:11.249Z,60.99
2024-03-03T08:08:38.760Z,61.55
2024-03-03T08:11:06.597Z,63.21
2024-03-03T08:13:34.002Z,61.34
2024-03-03T08:16:01.405Z,61.24
2024-03-03T08:18:29.109Z,60.46
2024-03-03T08:20:56.525Z,60.57
2024-03-03T08:23:23.941Z,60.48
2024-03-03T08:25:51.823Z,60.84
2024-03-03T08:28:19.677Z,61.02
2024-03-03T08:30:47.819Z,59.66
2024-03-03T08:33:15.629Z,60.67
2024-03-03T08:35:43.215Z,60.08
2024-03-03T08:38:10.650Z,59.20
2024-03-03T08:40:38.375Z,58.36
2024-03-03T08:43:06.113Z,58.53
2024-03-03T08:45:33.568Z,57.94
2024-03-03T08:48:01.540Z,57.42
2024-03-03T08:50:28.991Z,57.11
2024-03-03T08:52:56.593Z,56.43
2024-03-03T08:55:24.542Z,57.30
2024-03-03T08:57:52.128Z,57.17
2024-03-03T09:00:20.970Z,56.56
2024-03-03T09:02:48.747Z,56.69
2024-03-03T09:05:16.192Z,56.73
2024-03-03T09:07:43.681Z,55.03
2024-03-03T09:10:11.447Z,55.46
2024-03-03T09:12:38.969Z,56.20
2024-03-03T09:15:07.364Z,56.38
2024-03-03T09:17:35.316Z,55.94
2024-03-03T09:20:04.744Z,55.36
2024-03-03T09:22:36.883Z,54.55
2024-03-03T09:25:05.944Z,53.71
2024-03-03T09:27:33.430Z,55.29
2024-03-03T09:30:03.727Z,54.20
2024-03-03T09:32:31.989Z,60.31
2024-03-03T09:34:59.412Z,60.42
2024-03-03T09:37:26.961Z,59.91
2024-03-03T09:39:56.457Z,59.37
2024-03-03T09:42:25.969Z,60.47
2024-03-03T09:44:53.413Z,61.35
2024-03-03T09:47:21.081Z,60.79
2024-03-03T09:49:48.492Z,61.10
2024-03-03T09:52:16.021Z,59.46
2024-03-03T09:54:43.974Z,61.23
2024-03-03T09:57:15.100Z,61.00
2024-03-03T09:59:42.604Z,60.20
2024-03-03T10:02:18.566Z,60.58
2024-03-03T10:04:48.065Z,59.29
2024-03-03T10:07:25.034Z,58.74
2024-03-03T10:10:01.626Z,58.52
2024-03-03T10:12:33.071Z,60.05
2024-03-03T10:15:01.647Z,59.58
2024-03-03T10:17:29.409Z,61.18
2024-03-03T10:20:10.105Z,59.93
2024-03-03T10:22:38.137Z,59.26
2024-03-03T10:25:15.531Z,58.70
2024-03-03T10:27:47.072Z,58.30
2024-03-03T10:30:21.565Z,58.75
2024-03-03T10:32:49.788Z,57.49
2024-03-03T10:35:19.515Z,60.93
2024-03-03T10:37:53.877Z,61.62
2024-03-03T10:40:22.553Z,60.36
2024-03-03T10:42:50.257Z,62.80
2024-03-03T10:45:17.708Z,62.50
2024-03-03T10:47:45.519Z,60.75
2024-03-03T10:50:33.060Z,63.32
2024-03-03T10:53:01.599Z,62.41
2024-03-03T10:55:29.089Z,59.89
2024-03-03T10:57:56.650Z,61.01
2024-03-03T11:00:25.698Z,61.18
2024-03-03T11:02:53.553Z,61.53
2024-03-03T11:05:21.122Z,63.35
2024-03-03T11:07:48.815Z,61.14
2024-03-03T11:10:16.872Z,61.22
2024-03-03T11:12:48.959Z,63.60
2024-03-03T11:15:20.855Z,61.54
2024-03-03T11:17:59.350Z,61.27
2024-03-03T11:20:34.302Z,60.66
2024-03-03T11:23:11.379Z,62.42
2024-03-03T11:25:44.008Z,62.59
2024-03-03T11:28:14.682Z,62.35
2024-03-03T11:30:43.097Z,60.50
2024-03-03T11:33:10.568Z,60.70
2024-03-03T11:35:37.984Z,61.23
2024-03-03T11:38:05.768Z,60.42
2024-03-03T11:40:34.003Z,59.78
2024-03-03T11:43:02.285Z,60.35
2024-03-03T11:45:45.883Z,59.15
2024-03-03T11:48:13.767Z,58.49
2024-03-03T11:50:41.529Z,58.76
2024-03-03T11:53:08.974Z,58.31
2024-03-03T11:55:39.937Z,61.71
2024-03-03T11:58:08.481Z,60.40
2024-03-03T12:00:37.371Z,59.37
2024-03-03T12:03:07.170Z,61.32
2024-03-03T12:05:34.553Z,59.83
2024-03-03T12:08:01.967Z,60.58
2024-03-03T12:10:32.675Z,59.47
2024-03-03T12:13:02.440Z,60.95
2024-03-03T12:15:30.505Z,59.34
2024-03-03T12:17:59.326Z,57.67
2024-03-03T12:20:30.173Z,59.43
2024-03-03T12:22:58.136Z,58.42
2024-03-03T12:25:26.665Z,58.92
2024-03-03T12:27:55.254Z,58.66
2024-03-03T12:30:35.381Z,57.57
2024-03-03T12:33:05.786Z,56.86
2024-03-03T12:35:34.252Z,57.50
2024-03-03T12:38:01.897Z,56.66
2024-03-03T12:40:29.427Z,57.58
2024-03-03T12:42:57.278Z,57.43
2024-03-03T12:45:25.974Z,58.43
2024-03-03T12:47:53.605Z,59.72
2024-03-03T12:50:21.539Z,58.18
2024-03-03T12:52:49.396Z,57.93
2024-03-03T12:55:17.329Z,57.08
2024-03-03T12:57:45.696Z,57.19
2024-03-03T13:00:17.146Z,58.18
2024-03-03T13:02:45.352Z,56.70
2024-03-03T13:05:17.352Z,57.31
2024-03-03T13:07:51.629Z,57.10
2024-03-03T13:10:20.578Z,57.03
2024-03-03T13:12:51.554Z,57.67
2024-03-03T13:15:22.304Z,56.85
2024-03-03T13:18:16.212Z,54.77
2024-03-03T13:20:43.966Z,54.73
2024-03-03T13:23:15.133Z,55.91
2024-03-03T13:25:46.090Z,55.36
2024-03-03T13:28:15.270Z,55.70
2024-03-03T13:30:56.964Z,55.59
2024-03-03T13:33:25.102Z,55.09
2024-03-03T13:35:52.697Z,55.47
2024-03-03T13:38:20.344Z,56.22
2024-03-03T13:40:48.009Z,55.63
2024-03-03T13:43:15.664Z,55.28
2024-03-03T13:45:43.224Z,54.95
2024-03-03T13:48:14.536Z,54.69
2024-03-03T13:50:42.341Z,54.53
2024-03-03T13:53:10.191Z,56.60
2024-03-03T13:55:38.145Z,53.72
2024-03-03T13:58:05.683Z,54.54
2024-03-03T14:00:33.747Z,55.98
2024-03-03T14:03:04.276Z,55.54
2024-03-03T14:05:33.782Z,55.19
2024-03-03T14:08:01.415Z,54.89
2024-03-03T14:10:28.904Z,54.38
2024-03-03T14:12:56.250Z,53.83
2024-03-03T14:15:26.170Z,53.22
2024-03-03T14:17:53.522Z,52.49
2024-03-03T14:20:20.874Z,52.77
2024-03-03T14:22:51.261Z,51.81
2024-03-03T14:25:18.875Z,52.54
2024-03-03T14:27:46.874Z,52.23
2024-03-03T14:30:15.512Z,52.92
2024-03-03T14:32:42.828Z,52.83
2024-03-03T14:35:10.326Z,53.35
2024-03-03T14:37:37.952Z,51.56
2024-03-03T14:40:05.857Z,50.91
2024-03-03T14:42:33.337Z,50.65
2024-03-03T14:45:00.689Z,48.73
2024-03-03T14:47:28.296Z,47.67
2024-03-03T14:49:56.164Z,49.41
2024-03-03T14:52:24.268Z,48.12
2024-03-03T14:54:52.163Z,47.84
2024-03-03T14:57:19.513Z,48.54
2024-03-03T14:59:48.011Z,47.94
2024-03-03T15:02:17.763Z,49.08
2024-03-03T15:04:46.019Z,47.93
2024-03-03T15:07:14.384Z,48.70
2024-03-03T15:09:41.790Z,48.05
2024-03-03T15:12:09.129Z,47.58
2024-03-03T15:14:36.594Z,47.64
2024-03-03T15:17:04.026Z,47.56
2024-03-03T15:19:31.370Z,47.35
2024-03-03T15:21:58.718Z,47.67
2024-03-03T15:24:26.006Z,47.97
2024-03-03T15:26:53.317Z,45.83
2024-03-03T15:29:20.866Z,46.67
2024-03-03T15:31:48.983Z,46.74
2024-03-03T15:34:16.360Z,46.91
2024-03-03T15:36:44.178Z,47.02
2024-03-03T15:39:11.491Z,46.95
2024-03-03T15:41:38.754Z,47.40
2024-03-03T15:44:06.117Z,47.00
2024-03-03T15:46:33.443Z,46.86
2024-03-03T15:49:00.833Z,47.18
2024-03-03T15:51:28.539Z,47.78
2024-03-03T15:53:55.855Z,47.34
2024-03-03T15:56:23.107Z,47.43
2024-03-03T15:58:50.385Z,46.91
2024-03-03T16:01:17.796Z,46.75
2024-03-03T16:03:45.544Z,47.04
2024-03-03T16:06:12.990Z,47.42
2024-03-03T16:08:40.675Z,47.56
2024-03-03T16:11:08.396Z,47.38
2024-03-03T16:13:35.948Z,47.85
2024-03-03T16:16:04.066Z,47.79
2024-03-03T16:18:32.538Z,48.05
2024-03-03T16:20:59.964Z,48.40
2024-03-03T16:23:27.379Z,48.98
2024-03-03T16:25:55.254Z,48.96
2024-03-03T16:28:22.755Z,48.94
2024-03-03T16:30:50.148Z,49.30
2024-03-03T16:33:18.049Z,49.45
2024-03-03T16:35:45.761Z,49.94
2024-03-03T16:38:13.224Z,50.35
2024-03-03T16:40:41.098Z,50.81
2024-03-03T16:43:08.579Z,50.87
2024-03-03T16:45:37.129Z,51.33
2024-03-03T16:48:05.158Z,51.87
2024-03-03T16:50:32.725Z,52.45
2024-03-03T16:53:00.131Z,52.63
2024-03-03T16:55:27.983Z,53.36
2024-03-03T16:57:55.695Z,53.59
2024-03-03T17:00:24.150Z,53.63
2024-03-03T17:02:52.176Z,54.02
2024-03-03T17:05:19.982Z,53.98
2024-03-03T17:07:47.817Z,54.24
2024-03-03T17:10:15.976Z,54.97
2024-03-03T17:12:43.471Z,55.55
2024-03-03T17:15:12.376Z,55.69
2024-03-03T17:17:40.503Z,56.16
2024-03-03T17:20:11.167Z,55.76
2024-03-03T17:22:38.975Z,55.80
2024-03-03T17:25:07.058Z,56.56
2024-03-03T17:27:34.753Z,56.40
2024-03-03T17:30:04.112Z,56.52
2024-03-03T17:32:32.805Z,56.23
2024-03-03T17:35:00.330Z,56.41
2024-03-03T17:37:27.753Z,56.31
2024-03-03T17:39:55.525Z,57.00
2024-03-03T17:42:23.034Z,57.00
2024-03-03T17:44:50.568Z,56.83
2024-03-03T17:47:21.816Z,57.33
2024-03-03T17:49:49.546Z,57.69
2024-03-03T17:52:17.112Z,57.31
2024-03-03T17:54:45.900Z,57.24
2024-03-03T17:57:13.439Z,58.70
2024-03-03T17:59:42.119Z,58.11
2024-03-03T18:02:10.005Z,57.77
2024-03-03T18:04:38.110Z,58.03
2024-03-03T18:07:05.855Z,58.28
2024-03-03T18:09:33.575Z,58.48
2024-03-03T18:12:01.296Z,58.21
2024-03-03T18:14:28.964Z,58.42
2024-03-03T18:16:56.441Z,58.63
2024-03-03T18:19:24.218Z,58.61
2024-03-03T18:21:51.773Z,58.39
2024-03-03T18:24:21.672Z,58.35
2024-03-03T18:26:50.600Z,58.41
2024-03-03T18:29:18.183Z,59.13
2024-03-03T18:31:45.794Z,59.03
2024-03-03T18:34:13.765Z,60.14
2024-03-03T18:36:43.655Z,59.89
2024-03-03T18:39:12.024Z,59.69
2024-03-03T18:41:39.732Z,59.66
2024-03-03T18:44:07.762Z,59.88
2024-03-03T18:46:35.223Z,59.84
2024-03-03T18:49:03.096Z,59.98
2024-03-03T18:51:33.371Z,60.82
2024-03-03T18:54:00.794Z,60.98
2024-03-03T18:56:28.493Z,60.61
2024-03-03T18:58:56.146Z,60.81
2024-03-03T19:01:24.669Z,60.71
2024-03-03T19:03:52.519Z,61.12
2024-03-03T19:06:20.211Z,61.25
2024-03-03T19:08:47.661Z,61.70
2024-03-03T19:11:15.367Z,61.42
2024-03-03T19:13:42.805Z,60.89
2024-03-03T19:16:10.284Z,61.58
2024-03-03T19:18:38.073Z,61.22
2024-03-03T19:21:06.118Z,61.49
2024-03-03T19:23:33.754Z,61.44
2024-03-03T19:26:01.458Z,61.57
2024-03-03T19:28:30.075Z,61.52
2024-03-03T19:30:57.816Z,62.00
2024-03-03T19:33:25.806Z,61.84
2024-03-03T19:35:53.605Z,62.05
2024-03-03T19:38:23.547Z,61.85
2024-03-03T19:40:51.343Z,61.93
2024-03-03T19:43:19.149Z,61.96
2024-03-03T19:45:47.190Z,61.93
2024-03-03T19:48:14.994Z,61.97
2024-03-03T19:50:43.659Z,62.35
2024-03-03T19:53:11.199Z,62.13
2024-03-03T19:55:38.949Z,61.97
2024-03-03T19:58:07.248Z,62.42
2024-03-03T20:00:35.316Z,62.42
2024-03-03T20:03:06.912Z,62.63
2024-03-03T20:05:34.526Z,62.33
2024-03-03T20:08:06.132Z,62.35
2024-03-03T20:10:34.787Z,62.41
2024-03-03T20:13:04.956Z,62.75
2024-03-03T20:15:32.641Z,62.89
2024-03-03T20:18:00.737Z,62.84
2024-03-03T20:20:28.236Z,62.68
2024-03-03T20:22:55.708Z,62.72
2024-03-03T20:25:23.560Z,62.85
2024-03-03T20:27:51.049Z,63.12
2024-03-03T20:30:19.554Z,63.04
2024-03-03T20:32:48.407Z,63.16
2024-03-03T20:35:15.882Z,62.98
2024-03-03T20:37:43.401Z,63.07
2024-03-03T20:40:13.425Z,63.43
2024-03-03T20:42:41.629Z,63.31
2024-03-03T20:45:12.175Z,63.06
2024-03-03T20:47:40.381Z,63.46
2024-03-03T20:50:08.980Z,63.19
2024-03-03T20:52:37.187Z,63.15
2024-03-03T20:55:09.275Z,63.13
2024-03-03T20:57:36.869Z,63.33
2024-03-03T21:00:08.051Z,62.93
2024-03-03T21:02:37.064Z,62.95
2024-03-03T21:05:05.406Z,63.10
2024-03-03T21:07:34.026Z,65.32
2024-03-03T21:10:01.844Z,63.91
2024-03-03T21:12:29.924Z,63.09
2024-03-03T21:14:57.584Z,63.66
2024-03-03T21:17:25.530Z,63.87
2024-03-03T21:19:52.993Z,64.05
2024-03-03T21:22:20.494Z,64.44
2024-03-03T21:24:48.186Z,64.20
2024-03-03T21:27:15.647Z,64.25
2024-03-03T21:29:44.907Z,64.24
2024-03-03T21:32:12.643Z,64.13
2024-03-03T21:34:40.071Z,64.66
2024-03-03T21:37:07.649Z,64.19
2024-03-03T21:39:35.779Z,64.27
2024-03-03T21:42:03.269Z,64.68
2024-03-03T21:44:31.029Z,64.08
2024-03-03T21:46:58.745Z,64.18
2024-03-03T21:49:26.570Z,64.44
2024-03-03T21:51:54.068Z,64.29
2024-03-03T21:54:21.823Z,64.03
2024-03-03T21:56:49.246Z,64.19
2024-03-03T21:59:16.674Z,64.13
2024-03-03T22:01:52.700Z,64.72
2024-03-03T22:04:27.879Z,63.58
2024-03-03T22:06:55.333Z,63.93
2024-03-03T22:09:22.798Z,63.61
2024-03-03T22:11:51.494Z,63.67
2024-03-03T22:14:20.498Z,63.82
2024-03-03T22:16:47.922Z,64.52
2024-03-03T22:19:15.650Z,64.50
2024-03-03T22:21:43.101Z,64.02
2024-03-03T22:24:10.525Z,64.02
2024-03-03T22:26:41.721Z,64.11
2024-03-03T22:29:10.726Z,64.59
2024-03-03T22:31:38.485Z,64.72
2024-03-03T22:34:06.009Z,64.04
2024-03-03T22:36:33.504Z,64.38
2024-03-03T22:39:01.147Z,64.26
2024-03-03T22:41:28.584Z,64.13
2024-03-03T22:43:56.003Z,64.39
2024-03-03T22:46:23.657Z,64.13
2024-03-03T22:48:51.110Z,63.95
2024-03-03T22:51:18.597Z,63.54
2024-03-03T22:53:46.516Z,64.00
2024-03-03T22:56:13.913Z,63.98
2024-03-03T22:58:41.846Z,64.49
2024-03-03T23:01:10.508Z,64.10
2024-03-03T23:03:38.024Z,64.12
2024-03-03T23:06:11.751Z,64.38
2024-03-03T23:08:39.460Z,65.17
2024-03-03T23:11:06.949Z,64.02
2024-03-03T23:13:34.428Z,64.01
2024-03-03T23:16:02.262Z,63.97
2024-03-03T23:18:29.652Z,63.97
2024-03-03T23:20:57.131Z,63.93
2024-03-03T23:23:24.908Z,63.71
2024-03-03T23:25:52.356Z,64.57
2024-03-03T23:28:21.668Z,64.09
2024-03-03T23:30:49.502Z,64.94
2024-03-03T23:33:16.949Z,63.97
2024-03-03T23:35:44.456Z,64.27
2024-03-03T23:38:12.088Z,64.98
2024-03-03T23:40:39.681Z,64.22
2024-03-03T23:43:07.309Z,64.26
2024-03-03T23:45:35.009Z,63.78
2024-03-03T23:48:02.572Z,63.69
2024-03-03T23:50:30.046Z,63.91
2024-03-03T23:52:58.435Z,64.03
2024-03-03T23:55:26.001Z,63.42
2024-03-03T23:57:53.565Z,63.83
